createdAt,value
2023-07-09T00:01:43.181Z,100.00
2023-07-09T00:04:31.234Z,100.00
2023-07-09T00:07:24.627Z,100.00
2023-07-09T00:10:18.028Z,100.00
2023-07-09T00:13:05.856Z,100.00
2023-07-09T00:16:06.997Z,100.00
2023-07-09T00:18:55.131Z,100.00
2023-07-09T00:21:42.867Z,100.00
2023-07-09T00:24:30.865Z,100.00
2023-07-09T00:27:20.577Z,100.00
2023-07-09T00:30:16.621Z,100.00
2023-07-09T00:33:05.985Z,100.00
2023-07-09T00:35:53.953Z,100.00
2023-07-09T00:38:42.015Z,100.00
2023-07-09T00:41:31.000Z,100.00
2023-07-09T00:44:31.083Z,100.00
2023-07-09T00:47:27.469Z,100.00
2023-07-09T00:50:30.205Z,100.00
2023-07-09T00:53:22.239Z,100.00
2023-07-09T00:56:15.755Z,100.00
2023-07-09T00:59:07.180Z,100.00
2023-07-09T01:01:57.672Z,100.00
2023-07-09T01:04:48.925Z,100.00
2023-07-09T01:07:38.173Z,100.00
2023-07-09T01:10:26.184Z,100.00
2023-07-09T01:13:14.311Z,100.00
2023-07-09T01:16:02.631Z,100.00
2023-07-09T01:18:50.819Z,100.00
2023-07-09T01:21:39.952Z,100.00
2023-07-09T01:24:51.522Z,100.00
2023-07-09T01:27:42.917Z,100.00
2023-07-09T01:30:34.377Z,100.00
2023-07-09T01:33:23.601Z,100.00
2023-07-09T01:36:14.676Z,100.00
2023-07-09T01:39:04.028Z,100.00
2023-07-09T01:41:51.782Z,100.00
2023-07-09T01:44:39.712Z,100.00
2023-07-09T01:47:28.405Z,100.00
2023-07-09T01:50:17.575Z,100.00
2023-07-09T01:53:05.625Z,100.00
2023-07-09T01:55:56.543Z,100.00
2023-07-09T01:58:44.612Z,100.00
2023-07-09T02:01:35.008Z,100.00
2023-07-09T02:04:23.079Z,100.00
2023-07-09T02:07:10.915Z,100.00
2023-07-09T02:09:59.830Z,100.00
2023-07-09T02:12:49.517Z,100.00
2023-07-09T02:15:37.596Z,100.00
2023-07-09T02:18:25.398Z,100.00
2023-07-09T02:21:13.416Z,100.00
2023-07-09T02:24:01.439Z,100.00
2023-07-09T02:26:50.382Z,100.00
2023-07-09T02:29:39.907Z,100.00
2023-07-09T02:32:29.217Z,100.00
2023-07-09T02:35:17.556Z,100.00
2023-07-09T02:38:06.270Z,100.00
2023-07-09T02:40:54.590Z,100.00
2023-07-09T02:43:42.485Z,100.00
2023-07-09T02:46:32.036Z,100.00
2023-07-09T02:49:20.649Z,100.00
2023-07-09T02:52:10.347Z,100.00
2023-07-09T02:54:58.098Z,100.00
2023-07-09T02:57:46.046Z,100.00
2023-07-09T03:00:33.866Z,100.00
2023-07-09T03:03:23.507Z,100.00
2023-07-09T03:06:11.871Z,100.00
2023-07-09T03:08:59.953Z,100.00
2023-07-09T03:11:48.122Z,100.00
2023-07-09T03:14:35.916Z,100.00
2023-07-09T03:17:23.912Z,100.00
2023-07-09T03:20:14.473Z,100.00
2023-07-09T03:23:02.494Z,100.00
2023-07-09T03:25:50.288Z,100.00
2023-07-09T03:28:38.162Z,100.00
2023-07-09T03:31:26.126Z,100.00
2023-07-09T03:34:13.958Z,100.00
2023-07-09T03:37:03.083Z,99.52
2023-07-09T03:39:50.891Z,100.00
2023-07-09T03:42:38.678Z,100.00
2023-07-09T03:45:26.485Z,99.53
2023-07-09T03:48:15.714Z,99.42
2023-07-09T03:51:03.583Z,100.00
2023-07-09T03:53:52.924Z,99.56
2023-07-09T03:56:40.650Z,99.77
2023-07-09T03:59:28.681Z,98.61
2023-07-09T04:02:16.517Z,97.82
2023-07-09T04:05:05.230Z,98.92
2023-07-09T04:07:53.355Z,96.37
2023-07-09T04:10:42.453Z,95.30
2023-07-09T04:13:30.498Z,96.04
2023-07-09T04:16:18.382Z,94.68
2023-07-09T04:19:06.266Z,94.06
2023-07-09T04:21:53.974Z,96.46
2023-07-09T04:24:41.923Z,99.61
2023-07-09T04:27:31.169Z,95.94
2023-07-09T04:30:19.614Z,98.71
2023-07-09T04:33:07.854Z,97.08
2023-07-09T04:35:55.654Z,97.54
2023-07-09T04:38:43.494Z,96.35
2023-07-09T04:41:31.230Z,95.39
2023-07-09T04:44:20.417Z,95.25
2023-07-09T04:47:08.513Z,95.29
2023-07-09T04:49:56.277Z,95.28
2023-07-09T04:52:44.200Z,94.76
2023-07-09T04:55:32.197Z,93.98
2023-07-09T04:58:20.087Z,91.53
2023-07-09T05:01:09.519Z,93.60
2023-07-09T05:03:57.649Z,96.51
2023-07-09T05:06:45.727Z,91.87
2023-07-09T05:09:33.690Z,91.54
2023-07-09T05:12:22.022Z,92.12
2023-07-09T05:15:10.417Z,92.55
2023-07-09T05:17:59.530Z,92.33
2023-07-09T05:20:49.503Z,92.18
2023-07-09T05:23:37.350Z,91.98
2023-07-09T05:26:25.341Z,91.68
2023-07-09T05:29:13.094Z,89.52
2023-07-09T05:32:01.164Z,87.32
2023-07-09T05:34:50.384Z,87.27
2023-07-09T05:37:38.923Z,89.96
2023-07-09T05:40:26.644Z,89.46
2023-07-09T05:43:14.451Z,87.97
2023-07-09T05:46:04.201Z,87.40
2023-07-09T05:48:52.318Z,86.35
2023-07-09T05:51:41.508Z,88.37
2023-07-09T05:54:29.340Z,87.70
2023-07-09T05:57:17.567Z,86.57
2023-07-09T06:00:06.549Z,87.14
2023-07-09T06:02:54.668Z,85.75
2023-07-09T06:05:43.571Z,86.75
2023-07-09T06:08:32.838Z,85.72
2023-07-09T06:11:21.133Z,84.47
2023-07-09T06:14:09.099Z,83.65
2023-07-09T06:16:57.043Z,83.50
2023-07-09T06:19:45.079Z,82.48
2023-07-09T06:22:32.895Z,78.33
2023-07-09T06:25:22.031Z,79.26
2023-07-09T06:28:09.992Z,78.76
2023-07-09T06:30:58.097Z,78.35
2023-07-09T06:33:46.145Z,79.00
2023-07-09T06:36:33.968Z,78.42
2023-07-09T06:39:21.964Z,73.74
2023-07-09T06:42:11.237Z,72.59
2023-07-09T06:44:59.200Z,74.90
2023-07-09T06:47:47.143Z,74.27
2023-07-09T06:50:36.076Z,74.13
2023-07-09T06:53:24.726Z,70.53
2023-07-09T06:56:12.522Z,72.53
2023-07-09T06:59:01.701Z,70.40
2023-07-09T07:01:49.535Z,72.37
2023-07-09T07:04:37.563Z,68.38
2023-07-09T07:07:25.334Z,69.58
2023-07-09T07:10:13.649Z,66.03
2023-07-09T07:13:01.588Z,65.73
2023-07-09T07:15:51.775Z,63.89
2023-07-09T07:18:40.418Z,65.08
2023-07-09T07:21:28.254Z,64.56
2023-07-09T07:24:16.148Z,68.77
2023-07-09T07:27:03.984Z,64.85
2023-07-09T07:29:51.695Z,63.79
2023-07-09T07:32:45.852Z,62.80
2023-07-09T07:35:35.433Z,59.69
2023-07-09T07:38:23.606Z,58.94
2023-07-09T07:41:12.030Z,61.04
2023-07-09T07:44:00.108Z,62.54
2023-07-09T07:46:47.995Z,64.48
2023-07-09T07:49:37.265Z,60.90
2023-07-09T07:52:25.863Z,58.80
2023-07-09T07:55:17.008Z,64.56
2023-07-09T07:58:07.139Z,55.60
2023-07-09T08:00:58.083Z,57.79
2023-07-09T08:03:45.996Z,60.95
2023-07-09T08:06:35.095Z,61.33
2023-07-09T08:09:23.314Z,63.41
2023-07-09T08:12:15.850Z,60.53
2023-07-09T08:15:04.760Z,61.25
2023-07-09T08:17:52.779Z,61.82
2023-07-09T08:20:44.634Z,58.55
2023-07-09T08:23:34.043Z,60.78
2023-07-09T08:26:21.814Z,58.03
2023-07-09T08:29:09.997Z,58.82
2023-07-09T08:31:57.784Z,60.89
2023-07-09T08:35:11.373Z,61.85
2023-07-09T08:37:53.756Z,55.56
2023-07-09T08:40:44.495Z,57.02
2023-07-09T08:43:47.256Z,57.29
2023-07-09T08:46:47.340Z,55.64
2023-07-09T08:49:43.413Z,59.40
2023-07-09T08:52:35.537Z,56.18
2023-07-09T08:55:25.755Z,55.62
2023-07-09T08:58:19.704Z,55.74
2023-07-09T09:01:16.262Z,54.57
2023-07-09T09:04:08.369Z,51.85
2023-07-09T09:07:07.557Z,53.04
2023-07-09T09:10:00.978Z,54.12
2023-07-09T09:13:01.559Z,54.26
2023-07-09T09:15:51.468Z,52.72
2023-07-09T09:18:43.703Z,49.14
2023-07-09T09:21:35.778Z,50.49
2023-07-09T09:24:32.538Z,50.19
2023-07-09T09:27:20.559Z,51.23
2023-07-09T09:30:15.912Z,51.48
2023-07-09T09:33:12.526Z,51.49
2023-07-09T09:36:04.844Z,53.83
2023-07-09T09:38:53.753Z,50.80
2023-07-09T09:41:43.817Z,51.25
2023-07-09T09:44:32.702Z,51.68
2023-07-09T09:47:20.675Z,46.98
2023-07-09T09:50:15.316Z,47.54
2023-07-09T09:53:03.536Z,48.49
2023-07-09T09:55:54.639Z,53.41
2023-07-09T09:58:43.665Z,51.31
2023-07-09T10:01:33.664Z,51.52
2023-07-09T10:04:21.744Z,50.47
2023-07-09T10:07:10.929Z,48.95
2023-07-09T10:09:59.744Z,50.68
2023-07-09T10:12:52.983Z,51.47
2023-07-09T10:15:45.878Z,48.08
2023-07-09T10:18:45.719Z,54.07
2023-07-09T10:21:39.366Z,49.58
2023-07-09T10:24:44.766Z,47.31
2023-07-09T10:27:41.647Z,48.39
2023-07-09T10:30:47.511Z,49.64
2023-07-09T10:33:45.220Z,48.66
2023-07-09T10:36:47.325Z,47.39
2023-07-09T10:39:39.609Z,47.53
2023-07-09T10:42:31.654Z,44.88
2023-07-09T10:45:26.008Z,45.78
2023-07-09T10:48:18.933Z,48.08
2023-07-09T10:51:15.891Z,46.77
2023-07-09T10:54:13.855Z,45.81
2023-07-09T10:57:08.023Z,44.46
2023-07-09T10:59:55.965Z,44.92
2023-07-09T11:02:45.511Z,44.21
2023-07-09T11:05:34.277Z,45.63
2023-07-09T11:08:27.102Z,47.17
2023-07-09T11:11:23.816Z,45.65
2023-07-09T11:14:28.927Z,47.39
2023-07-09T11:17:20.543Z,47.73
2023-07-09T11:20:18.567Z,44.13
2023-07-09T11:23:08.270Z,47.57
2023-07-09T11:26:14.221Z,42.48
2023-07-09T11:29:18.604Z,42.85
2023-07-09T11:32:10.377Z,41.80
2023-07-09T11:35:10.248Z,43.39
2023-07-09T11:38:00.002Z,43.92
2023-07-09T11:40:49.218Z,46.67
2023-07-09T11:43:38.573Z,43.94
2023-07-09T11:46:29.321Z,46.45
2023-07-09T11:49:17.127Z,43.65
2023-07-09T11:52:07.088Z,48.12
2023-07-09T11:54:55.477Z,44.97
2023-07-09T11:57:43.306Z,45.16
2023-07-09T12:00:41.369Z,42.91
2023-07-09T12:03:34.769Z,52.71
2023-07-09T12:06:25.399Z,47.06
2023-07-09T12:09:18.049Z,48.34
2023-07-09T12:12:06.720Z,43.50
2023-07-09T12:14:54.773Z,44.34
2023-07-09T12:17:42.641Z,41.47
2023-07-09T12:20:36.342Z,43.99
2023-07-09T12:23:29.217Z,43.55
2023-07-09T12:26:18.683Z,45.19
2023-07-09T12:29:10.381Z,44.71
2023-07-09T12:31:58.669Z,43.58
2023-07-09T12:34:49.810Z,42.95
2023-07-09T12:37:39.543Z,41.29
2023-07-09T12:40:31.441Z,45.05
2023-07-09T12:43:23.792Z,41.29
2023-07-09T12:46:12.282Z,42.28
2023-07-09T12:49:01.144Z,42.88
2023-07-09T12:51:48.945Z,46.70
2023-07-09T12:54:38.312Z,42.91
2023-07-09T12:57:27.826Z,47.70
2023-07-09T13:00:17.267Z,49.07
2023-07-09T13:03:05.290Z,45.30
2023-07-09T13:05:55.303Z,52.29
2023-07-09T13:08:45.407Z,49.84
2023-07-09T13:11:38.268Z,49.01
2023-07-09T13:14:28.218Z,46.61
2023-07-09T13:17:19.071Z,48.27
2023-07-09T13:20:07.314Z,49.85
2023-07-09T13:22:55.492Z,49.58
2023-07-09T13:25:48.208Z,46.90
2023-07-09T13:28:38.386Z,47.12
2023-07-09T13:31:26.463Z,49.19
2023-07-09T13:34:22.190Z,50.63
2023-07-09T13:37:14.419Z,48.84
2023-07-09T13:40:02.297Z,44.96
2023-07-09T13:42:51.137Z,49.33
2023-07-09T13:45:41.007Z,47.11
2023-07-09T13:48:30.561Z,45.72
2023-07-09T13:51:22.209Z,50.22
2023-07-09T13:54:17.587Z,47.15
2023-07-09T13:57:08.001Z,52.18
2023-07-09T13:59:56.807Z,52.63
2023-07-09T14:02:47.592Z,45.58
2023-07-09T14:05:35.669Z,49.11
2023-07-09T14:08:23.822Z,49.30
2023-07-09T14:11:13.710Z,54.06
2023-07-09T14:14:01.711Z,49.78
2023-07-09T14:16:50.765Z,50.51
2023-07-09T14:19:39.987Z,47.79
2023-07-09T14:22:32.809Z,43.93
2023-07-09T14:25:24.315Z,44.42
2023-07-09T14:28:13.961Z,49.77
2023-07-09T14:31:03.696Z,51.01
2023-07-09T14:33:51.853Z,49.16
2023-07-09T14:36:41.047Z,46.88
2023-07-09T14:39:30.092Z,44.24
2023-07-09T14:42:18.095Z,46.99
2023-07-09T14:45:08.775Z,48.18
2023-07-09T14:47:56.739Z,49.75
2023-07-09T14:50:45.437Z,50.14
2023-07-09T14:53:35.825Z,47.40
2023-07-09T14:56:23.654Z,48.52
2023-07-09T14:59:11.366Z,51.54
2023-07-09T15:01:59.290Z,45.09
2023-07-09T15:04:47.798Z,46.05
2023-07-09T15:07:35.641Z,49.58
2023-07-09T15:10:27.988Z,50.36
2023-07-09T15:13:20.842Z,48.38
2023-07-09T15:16:09.063Z,46.13
2023-07-09T15:18:56.739Z,49.31
2023-07-09T15:21:45.237Z,47.61
2023-07-09T15:24:36.510Z,51.92
2023-07-09T15:27:25.841Z,54.10
2023-07-09T15:30:20.625Z,49.24
2023-07-09T15:33:14.692Z,52.76
2023-07-09T15:36:02.324Z,50.02
2023-07-09T15:38:50.538Z,51.00
2023-07-09T15:41:38.390Z,54.47
2023-07-09T15:44:27.845Z,50.23
2023-07-09T15:47:19.924Z,50.36
2023-07-09T15:50:21.171Z,49.54
2023-07-09T15:53:12.878Z,47.75
2023-07-09T15:56:03.778Z,48.78
2023-07-09T15:58:53.286Z,50.40
2023-07-09T16:01:42.664Z,48.54
2023-07-09T16:04:31.279Z,50.58
2023-07-09T16:07:19.622Z,50.97
2023-07-09T16:10:08.573Z,51.20
2023-07-09T16:12:56.527Z,50.41
2023-07-09T16:15:44.374Z,52.61
2023-07-09T16:18:33.725Z,49.40
2023-07-09T16:21:26.203Z,55.04
2023-07-09T16:24:21.960Z,51.88
2023-07-09T16:27:17.305Z,50.51
2023-07-09T16:30:13.279Z,52.40
2023-07-09T16:33:03.898Z,53.74
2023-07-09T16:35:55.681Z,54.61
2023-07-09T16:38:43.828Z,53.18
2023-07-09T16:41:31.677Z,51.84
2023-07-09T16:44:19.734Z,48.88
2023-07-09T16:47:16.675Z,50.55
2023-07-09T16:50:05.578Z,52.42
2023-07-09T16:52:56.280Z,53.04
2023-07-09T16:55:44.715Z,52.02
2023-07-09T16:58:35.802Z,56.02
2023-07-09T17:01:23.857Z,54.27
2023-07-09T17:04:22.054Z,51.41
2023-07-09T17:07:09.992Z,52.89
2023-07-09T17:09:59.921Z,52.94
2023-07-09T17:12:49.054Z,50.25
2023-07-09T17:15:43.467Z,50.96
2023-07-09T17:18:33.061Z,55.59
2023-07-09T17:21:21.119Z,51.35
2023-07-09T17:24:29.347Z,51.00
2023-07-09T17:27:18.459Z,53.81
2023-07-09T17:30:15.334Z,52.71
2023-07-09T17:33:04.172Z,54.84
2023-07-09T17:35:53.539Z,52.98
2023-07-09T17:38:42.364Z,56.65
2023-07-09T17:41:30.185Z,55.05
2023-07-09T17:44:20.338Z,53.74
2023-07-09T17:47:16.445Z,57.31
2023-07-09T17:50:04.327Z,56.75
2023-07-09T17:52:53.779Z,56.74
2023-07-09T17:55:41.494Z,57.63
2023-07-09T17:58:32.101Z,57.17
2023-07-09T18:01:21.345Z,54.36
2023-07-09T18:04:29.680Z,55.24
2023-07-09T18:07:22.632Z,58.04
2023-07-09T18:10:12.716Z,53.52
2023-07-09T18:13:06.077Z,56.00
2023-07-09T18:15:55.600Z,56.02
2023-07-09T18:18:45.040Z,55.43
2023-07-09T18:21:32.764Z,56.98
2023-07-09T18:24:22.713Z,57.81
2023-07-09T18:27:15.676Z,56.87
2023-07-09T18:30:03.983Z,57.93
2023-07-09T18:32:54.255Z,56.39
2023-07-09T18:35:43.467Z,56.15
2023-07-09T18:38:31.498Z,56.79
2023-07-09T18:41:19.953Z,56.83
2023-07-09T18:44:18.240Z,56.80
2023-07-09T18:47:13.666Z,57.16
2023-07-09T18:50:01.626Z,56.95
2023-07-09T18:52:51.192Z,57.44
2023-07-09T18:55:39.040Z,58.53
2023-07-09T18:58:28.692Z,60.02
2023-07-09T19:01:22.644Z,61.21
2023-07-09T19:04:20.560Z,62.60
2023-07-09T19:07:12.188Z,64.59
2023-07-09T19:10:01.501Z,65.77
2023-07-09T19:12:53.171Z,66.27
2023-07-09T19:15:41.365Z,67.58
2023-07-09T19:18:34.263Z,68.58
2023-07-09T19:21:22.081Z,68.64
2023-07-09T19:24:20.512Z,69.89
2023-07-09T19:27:09.919Z,70.50
2023-07-09T19:29:57.728Z,71.35
2023-07-09T19:32:51.085Z,71.94
2023-07-09T19:35:39.988Z,71.42
2023-07-09T19:38:27.716Z,72.35
2023-07-09T19:41:16.720Z,72.34
2023-07-09T19:44:06.047Z,73.14
2023-07-09T19:46:53.893Z,72.19
2023-07-09T19:49:41.656Z,73.12
2023-07-09T19:52:29.520Z,73.07
2023-07-09T19:55:21.495Z,73.87
2023-07-09T19:58:09.421Z,73.28
2023-07-09T20:00:58.753Z,74.29
2023-07-09T20:03:46.771Z,75.01
2023-07-09T20:06:34.691Z,75.00
2023-07-09T20:09:22.826Z,75.66
2023-07-09T20:12:20.272Z,76.22
2023-07-09T20:15:24.161Z,75.28
2023-07-09T20:18:16.243Z,75.95
2023-07-09T20:21:15.572Z,75.82
2023-07-09T20:24:03.725Z,76.58
2023-07-09T20:26:52.451Z,76.93
2023-07-09T20:29:40.542Z,76.81
2023-07-09T20:32:28.854Z,76.53
2023-07-09T20:35:22.328Z,77.34
2023-07-09T20:38:16.388Z,79.33
2023-07-09T20:41:04.272Z,78.82
2023-07-09T20:43:56.000Z,78.88
2023-07-09T20:46:44.297Z,79.83
2023-07-09T20:49:34.995Z,79.70
2023-07-09T20:52:26.679Z,80.02
2023-07-09T20:55:16.656Z,80.14
2023-07-09T20:58:04.703Z,80.02
2023-07-09T21:00:55.880Z,80.09
2023-07-09T21:03:43.779Z,79.41
2023-07-09T21:06:31.883Z,79.78
2023-07-09T21:09:25.246Z,80.63
2023-07-09T21:12:14.530Z,80.42
2023-07-09T21:15:02.366Z,79.53
2023-07-09T21:17:50.477Z,79.85
2023-07-09T21:20:38.329Z,80.51
2023-07-09T21:23:26.292Z,80.54
2023-07-09T21:26:17.185Z,81.40
2023-07-09T21:29:05.046Z,81.38
2023-07-09T21:31:55.101Z,81.05
2023-07-09T21:34:43.743Z,82.21
2023-07-09T21:37:33.427Z,82.39
2023-07-09T21:40:28.218Z,82.74
2023-07-09T21:43:17.380Z,83.07
2023-07-09T21:46:05.710Z,82.87
2023-07-09T21:48:53.719Z,82.37
2023-07-09T21:51:41.876Z,82.54
2023-07-09T21:57:24.392Z,83.96
2023-07-09T22:00:18.298Z,83.44
2023-07-09T22:03:07.498Z,83.41
2023-07-09T22:05:55.754Z,83.45
2023-07-09T22:08:47.207Z,84.15
2023-07-09T22:11:36.227Z,83.28
2023-07-09T22:14:26.974Z,83.96
2023-07-09T22:17:17.867Z,85.03
2023-07-09T22:20:08.426Z,84.84
2023-07-09T22:22:56.974Z,84.77
2023-07-09T22:25:44.744Z,84.37
2023-07-09T22:28:32.580Z,84.56
2023-07-09T22:31:20.475Z,83.45
2023-07-09T22:34:20.122Z,83.73
2023-07-09T22:37:13.866Z,84.44
2023-07-09T22:40:02.012Z,85.97
2023-07-09T22:42:50.931Z,85.37
2023-07-09T22:45:39.208Z,86.11
2023-07-09T22:48:28.069Z,85.82
2023-07-09T22:51:17.245Z,85.61
2023-07-09T22:54:05.434Z,86.63
2023-07-09T22:56:53.328Z,87.08
2023-07-09T22:59:41.069Z,87.97
2023-07-09T23:02:28.955Z,87.38
2023-07-09T23:05:17.658Z,86.19
2023-07-09T23:08:12.415Z,86.40
2023-07-09T23:11:01.837Z,86.51
2023-07-09T23:13:50.138Z,86.13
2023-07-09T23:16:38.119Z,85.81
2023-07-09T23:19:28.209Z,85.59
2023-07-09T23:22:15.920Z,86.06
2023-07-09T23:25:05.573Z,85.31
2023-07-09T23:27:55.017Z,85.04
2023-07-09T23:30:44.200Z,86.33
2023-07-09T23:33:33.589Z,86.30
2023-07-09T23:36:21.489Z,86.14
2023-07-09T23:39:11.157Z,85.54
2023-07-09T23:42:00.536Z,84.69
2023-07-09T23:44:48.421Z,85.51
2023-07-09T23:47:36.318Z,86.05
2023-07-09T23:50:25.172Z,85.20
2023-07-09T23:53:23.948Z,86.32
2023-07-09T23:56:16.511Z,86.37
2023-07-09T23:59:07.163Z,86.29
